sensor_id;sensor_type;location;lat;lon;timestamp;temperature;humidity
19680;DHT22;9989;48.962;9.182;2024-02-04T00:00:27;9.80;99.90
19680;DHT22;9989;48.962;9.182;2024-02-04T00:02:53;9.70;99.90
19680;DHT22;9989;48.962;9.182;2024-02-04T00:05:19;9.70;99.90
19680;DHT22;9989;48.962;9.182;2024-02-04T00:07:44;9.70;99.90
19680;DHT22;9989;48.962;9.182;2024-02-04T00:10:10;9.70;99.90
19680;DHT22;9989;48.962;9.182;2024-02-04T00:12:37;9.60;99.90
19680;DHT22;9989;48.962;9.182;2024-02-04T00:15:03;9.60;99.90
19680;DHT22;9989;48.962;9.182;2024-02-04T00:17:31;9.60;99.90
19680;DHT22;9989;48.962;9.182;2024-02-04T00:20:00;9.60;99.90
19680;DHT22;9989;48.962;9.182;2024-02-04T00:22:27;9.60;99.90
19680;DHT22;9989;48.962;9.182;2024-02-04T00:24:53;9.60;99.90
19680;DHT22;9989;48.962;9.182;2024-02-04T00:27:18;9.60;99.90
19680;DHT22;9989;48.962;9.182;2024-02-04T00:29:44;9.50;99.90
19680;DHT22;9989;48.962;9.182;2024-02-04T00:32:10;9.50;99.90
19680;DHT22;9989;48.962;9.182;2024-02-04T00:34:36;9.50;99.90
19680;DHT22;9989;48.962;9.182;2024-02-04T00:37:01;9.40;99.90
19680;DHT22;9989;48.962;9.182;2024-02-04T00:39:28;9.40;99.90
19680;DHT22;9989;48.962;9.182;2024-02-04T00:41:53;9.40;99.90
19680;DHT22;9989;48.962;9.182;2024-02-04T00:44:19;9.40;99.90
19680;DHT22;9989;48.962;9.182;2024-02-04T00:46:44;9.40;99.90
19680;DHT22;9989;48.962;9.182;2024-02-04T00:49:10;9.50;99.90
19680;DHT22;9989;48.962;9.182;2024-02-04T00:51:36;9.50;99.90
19680;DHT22;9989;48.962;9.182;2024-02-04T00:54:01;9.50;99.90
19680;DHT22;9989;48.962;9.182;2024-02-04T00:56:27;9.50;99.90
19680;DHT22;9989;48.962;9.182;2024-02-04T00:58:52;9.50;99.90
19680;DHT22;9989;48.962;9.182;2024-02-04T01:01:18;9.50;99.90
19680;DHT22;9989;48.962;9.182;2024-02-04T01:03:45;9.50;99.90
19680;DHT22;9989;48.962;9.182;2024-02-04T01:06:10;9.60;99.90
19680;DHT22;9989;48.962;9.182;2024-02-04T01:08:36;9.60;99.90
19680;DHT22;9989;48.962;9.182;2024-02-04T01:11:04;9.60;99.90
19680;DHT22;9989;48.962;9.182;2024-02-04T01:13:31;9.60;99.90
19680;DHT22;9989;48.962;9.182;2024-02-04T01:15:56;9.60;99.90
19680;DHT22;9989;48.962;9.182;2024-02-04T01:18:22;9.60;99.90
19680;DHT22;9989;48.962;9.182;2024-02-04T01:20:47;9.60;99.90
19680;DHT22;9989;48.962;9.182;2024-02-04T01:23:13;9.60;99.90
19680;DHT22;9989;48.962;9.182;2024-02-04T01:25:39;9.50;99.90
19680;DHT22;9989;48.962;9.182;2024-02-04T01:28:05;9.50;99.90
19680;DHT22;9989;48.962;9.182;2024-02-04T01:30:30;9.50;99.90
19680;DHT22;9989;48.962;9.182;2024-02-04T01:32:56;9.50;99.90
19680;DHT22;9989;48.962;9.182;2024-02-04T01:35:22;9.50;99.90
19680;DHT22;9989;48.962;9.182;2024-02-04T01:37:48;9.50;99.90
19680;DHT22;9989;48.962;9.182;2024-02-04T01:40:14;9.50;99.90
19680;DHT22;9989;48.962;9.182;2024-02-04T01:42:40;9.50;99.90
19680;DHT22;9989;48.962;9.182;2024-02-04T01:45:06;9.50;99.90
19680;DHT22;9989;48.962;9.182;2024-02-04T01:47:33;9.50;99.90
19680;DHT22;9989;48.962;9.182;2024-02-04T01:49:59;9.50;99.90
19680;DHT22;9989;48.962;9.182;2024-02-04T01:52:25;9.50;99.90
19680;DHT22;9989;48.962;9.182;2024-02-04T01:54:52;9.50;99.90
19680;DHT22;9989;48.962;9.182;2024-02-04T01:57:19;9.60;99.90
19680;DHT22;9989;48.962;9.182;2024-02-04T01:59:45;9.60;99.90
19680;DHT22;9989;48.962;9.182;2024-02-04T02:02:11;9.60;99.90
19680;DHT22;9989;48.962;9.182;2024-02-04T02:04:37;9.50;99.90
19680;DHT22;9989;48.962;9.182;2024-02-04T02:07:04;9.50;99.90
19680;DHT22;9989;48.962;9.182;2024-02-04T02:09:31;9.50;99.90
19680;DHT22;9989;48.962;9.182;2024-02-04T02:12:19;9.40;99.90
19680;DHT22;9989;48.962;9.182;2024-02-04T02:14:52;9.40;99.90
19680;DHT22;9989;48.962;9.182;2024-02-04T02:17:25;9.40;99.90
19680;DHT22;9989;48.962;9.182;2024-02-04T02:20:02;9.40;99.90
19680;DHT22;9989;48.962;9.182;2024-02-04T02:22:49;9.40;99.90
19680;DHT22;9989;48.962;9.182;2024-02-04T02:25:18;9.40;99.90
19680;DHT22;9989;48.962;9.182;2024-02-04T02:27:49;9.40;99.90
19680;DHT22;9989;48.962;9.182;2024-02-04T02:30:15;9.30;99.90
19680;DHT22;9989;48.962;9.182;2024-02-04T02:32:47;9.30;99.90
19680;DHT22;9989;48.962;9.182;2024-02-04T02:35:14;9.40;99.90
19680;DHT22;9989;48.962;9.182;2024-02-04T02:37:55;9.40;99.90
19680;DHT22;9989;48.962;9.182;2024-02-04T02:42:52;9.40;99.90
19680;DHT22;9989;48.962;9.182;2024-02-04T02:45:21;9.40;99.90
19680;DHT22;9989;48.962;9.182;2024-02-04T02:47:49;9.40;99.90
19680;DHT22;9989;48.962;9.182;2024-02-04T02:50:16;9.40;99.90
19680;DHT22;9989;48.962;9.182;2024-02-04T02:52:41;9.40;99.90
19680;DHT22;9989;48.962;9.182;2024-02-04T02:55:07;9.40;99.90
19680;DHT22;9989;48.962;9.182;2024-02-04T02:57:33;9.40;99.90
19680;DHT22;9989;48.962;9.182;2024-02-04T02:59:58;9.40;99.90
19680;DHT22;9989;48.962;9.182;2024-02-04T03:02:24;9.40;99.90
19680;DHT22;9989;48.962;9.182;2024-02-04T03:04:49;9.40;99.90
19680;DHT22;9989;48.962;9.182;2024-02-04T03:07:15;9.50;99.90
19680;DHT22;9989;48.962;9.182;2024-02-04T03:09:41;9.50;99.90
19680;DHT22;9989;48.962;9.182;2024-02-04T03:12:06;9.50;99.90
19680;DHT22;9989;48.962;9.182;2024-02-04T03:14:32;9.50;99.90
19680;DHT22;9989;48.962;9.182;2024-02-04T03:16:58;9.50;99.90
19680;DHT22;9989;48.962;9.182;2024-02-04T03:19:24;9.50;99.90
19680;DHT22;9989;48.962;9.182;2024-02-04T03:21:49;9.50;99.90
19680;DHT22;9989;48.962;9.182;2024-02-04T03:24:15;9.50;99.90
19680;DHT22;9989;48.962;9.182;2024-02-04T03:26:40;9.40;99.90
19680;DHT22;9989;48.962;9.182;2024-02-04T03:29:06;9.50;99.90
19680;DHT22;9989;48.962;9.182;2024-02-04T03:31:32;9.50;99.90
19680;DHT22;9989;48.962;9.182;2024-02-04T03:33:57;9.50;99.90
19680;DHT22;9989;48.962;9.182;2024-02-04T03:36:24;9.50;99.90
19680;DHT22;9989;48.962;9.182;2024-02-04T03:38:50;9.50;99.90
19680;DHT22;9989;48.962;9.182;2024-02-04T03:41:16;9.50;99.90
19680;DHT22;9989;48.962;9.182;2024-02-04T03:43:42;9.50;99.90
19680;DHT22;9989;48.962;9.182;2024-02-04T03:46:07;9.50;99.90
19680;DHT22;9989;48.962;9.182;2024-02-04T03:48:33;9.60;99.90
19680;DHT22;9989;48.962;9.182;2024-02-04T03:51:01;9.60;99.90
19680;DHT22;9989;48.962;9.182;2024-02-04T03:53:27;9.60;99.90
19680;DHT22;9989;48.962;9.182;2024-02-04T03:55:52;9.60;99.90
19680;DHT22;9989;48.962;9.182;2024-02-04T03:58:20;9.60;99.90
19680;DHT22;9989;48.962;9.182;2024-02-04T04:00:45;9.70;99.90
19680;DHT22;9989;48.962;9.182;2024-02-04T04:03:11;9.70;99.90
19680;DHT22;9989;48.962;9.182;2024-02-04T04:05:37;9.70;99.90
19680;DHT22;9989;48.962;9.182;2024-02-04T04:08:02;9.70;99.90
19680;DHT22;9989;48.962;9.182;2024-02-04T04:10:28;9.70;99.90
19680;DHT22;9989;48.962;9.182;2024-02-04T04:12:54;9.70;99.90
19680;DHT22;9989;48.962;9.182;2024-02-04T04:15:19;9.80;99.90
19680;DHT22;9989;48.962;9.182;2024-02-04T04:17:45;9.80;99.90
19680;DHT22;9989;48.962;9.182;2024-02-04T04:20:11;9.80;99.90
19680;DHT22;9989;48.962;9.182;2024-02-04T04:22:39;9.80;99.90
19680;DHT22;9989;48.962;9.182;2024-02-04T04:25:06;9.80;99.90
19680;DHT22;9989;48.962;9.182;2024-02-04T04:27:32;9.80;99.90
19680;DHT22;9989;48.962;9.182;2024-02-04T04:29:57;9.80;99.90
19680;DHT22;9989;48.962;9.182;2024-02-04T04:32:23;9.80;99.90
19680;DHT22;9989;48.962;9.182;2024-02-04T04:34:48;9.80;99.90
19680;DHT22;9989;48.962;9.182;2024-02-04T04:37:14;9.80;99.90
19680;DHT22;9989;48.962;9.182;2024-02-04T04:39:39;9.80;99.90
19680;DHT22;9989;48.962;9.182;2024-02-04T04:42:05;9.80;99.90
19680;DHT22;9989;48.962;9.182;2024-02-04T04:44:31;9.80;99.90
19680;DHT22;9989;48.962;9.182;2024-02-04T04:46:56;9.90;99.90
19680;DHT22;9989;48.962;9.182;2024-02-04T04:49:22;9.80;99.90
19680;DHT22;9989;48.962;9.182;2024-02-04T04:51:47;9.90;99.90
19680;DHT22;9989;48.962;9.182;2024-02-04T04:54:13;9.80;99.90
19680;DHT22;9989;48.962;9.182;2024-02-04T04:56:39;9.90;99.90
19680;DHT22;9989;48.962;9.182;2024-02-04T04:59:06;9.90;99.90
19680;DHT22;9989;48.962;9.182;2024-02-04T05:01:32;9.80;99.90
19680;DHT22;9989;48.962;9.182;2024-02-04T05:03:58;9.90;99.90
19680;DHT22;9989;48.962;9.182;2024-02-04T05:06:23;9.90;99.90
19680;DHT22;9989;48.962;9.182;2024-02-04T05:08:49;9.90;99.90
19680;DHT22;9989;48.962;9.182;2024-02-04T05:11:14;9.90;99.90
19680;DHT22;9989;48.962;9.182;2024-02-04T05:13:40;10.00;99.90
19680;DHT22;9989;48.962;9.182;2024-02-04T05:16:06;9.90;99.90
19680;DHT22;9989;48.962;9.182;2024-02-04T05:18:31;10.00;99.90
19680;DHT22;9989;48.962;9.182;2024-02-04T05:20:57;9.90;99.90
19680;DHT22;9989;48.962;9.182;2024-02-04T05:23:23;10.00;99.90
19680;DHT22;9989;48.962;9.182;2024-02-04T05:25:48;9.90;99.90
19680;DHT22;9989;48.962;9.182;2024-02-04T05:28:14;9.90;99.90
19680;DHT22;9989;48.962;9.182;2024-02-04T05:30:39;9.90;99.90
19680;DHT22;9989;48.962;9.182;2024-02-04T05:33:05;10.00;99.90
19680;DHT22;9989;48.962;9.182;2024-02-04T05:35:31;9.90;99.90
19680;DHT22;9989;48.962;9.182;2024-02-04T05:37:57;10.00;99.90
19680;DHT22;9989;48.962;9.182;2024-02-04T05:40:22;10.00;99.90
19680;DHT22;9989;48.962;9.182;2024-02-04T05:42:48;10.00;99.90
19680;DHT22;9989;48.962;9.182;2024-02-04T05:45:14;10.00;99.90
19680;DHT22;9989;48.962;9.182;2024-02-04T05:47:40;10.00;99.90
19680;DHT22;9989;48.962;9.182;2024-02-04T05:50:06;10.00;99.90
19680;DHT22;9989;48.962;9.182;2024-02-04T05:52:32;10.00;99.90
19680;DHT22;9989;48.962;9.182;2024-02-04T05:54:57;10.00;99.90
19680;DHT22;9989;48.962;9.182;2024-02-04T05:57:23;10.10;99.90
19680;DHT22;9989;48.962;9.182;2024-02-04T05:59:50;10.00;99.90
19680;DHT22;9989;48.962;9.182;2024-02-04T06:02:18;10.00;99.90
19680;DHT22;9989;48.962;9.182;2024-02-04T06:04:43;10.00;99.90
19680;DHT22;9989;48.962;9.182;2024-02-04T06:07:09;10.00;99.90
19680;DHT22;9989;48.962;9.182;2024-02-04T06:09:35;10.00;99.90
19680;DHT22;9989;48.962;9.182;2024-02-04T06:12:01;9.90;99.90
19680;DHT22;9989;48.962;9.182;2024-02-04T06:14:27;10.00;99.90
19680;DHT22;9989;48.962;9.182;2024-02-04T06:16:52;9.90;99.90
19680;DHT22;9989;48.962;9.182;2024-02-04T06:19:18;10.00;99.90
19680;DHT22;9989;48.962;9.182;2024-02-04T06:21:43;10.00;99.90
19680;DHT22;9989;48.962;9.182;2024-02-04T06:24:09;10.00;99.90
19680;DHT22;9989;48.962;9.182;2024-02-04T06:26:38;10.00;99.90
19680;DHT22;9989;48.962;9.182;2024-02-04T06:29:04;10.00;99.90
19680;DHT22;9989;48.962;9.182;2024-02-04T06:31:30;10.00;99.90
19680;DHT22;9989;48.962;9.182;2024-02-04T06:33:55;10.00;99.90
19680;DHT22;9989;48.962;9.182;2024-02-04T06:36:21;10.00;99.90
19680;DHT22;9989;48.962;9.182;2024-02-04T06:38:47;10.00;99.90
19680;DHT22;9989;48.962;9.182;2024-02-04T06:41:12;10.00;99.90
19680;DHT22;9989;48.962;9.182;2024-02-04T06:43:38;10.10;99.90
19680;DHT22;9989;48.962;9.182;2024-02-04T06:46:04;10.10;99.90
19680;DHT22;9989;48.962;9.182;2024-02-04T06:48:30;10.10;99.90
19680;DHT22;9989;48.962;9.182;2024-02-04T06:50:55;10.10;99.90
19680;DHT22;9989;48.962;9.182;2024-02-04T06:53:21;10.10;99.90
19680;DHT22;9989;48.962;9.182;2024-02-04T06:55:47;10.10;99.90
19680;DHT22;9989;48.962;9.182;2024-02-04T06:58:12;10.10;99.90
19680;DHT22;9989;48.962;9.182;2024-02-04T07:00:38;10.10;99.90
19680;DHT22;9989;48.962;9.182;2024-02-04T07:03:04;10.10;99.90
19680;DHT22;9989;48.962;9.182;2024-02-04T07:05:30;10.10;99.90
19680;DHT22;9989;48.962;9.182;2024-02-04T07:07:56;10.00;99.90
19680;DHT22;9989;48.962;9.182;2024-02-04T07:10:22;10.10;99.90
19680;DHT22;9989;48.962;9.182;2024-02-04T07:12:47;10.10;99.90
19680;DHT22;9989;48.962;9.182;2024-02-04T07:15:13;10.10;99.90
19680;DHT22;9989;48.962;9.182;2024-02-04T07:17:38;10.00;99.90
19680;DHT22;9989;48.962;9.182;2024-02-04T07:20:05;10.10;99.90
19680;DHT22;9989;48.962;9.182;2024-02-04T07:22:31;10.10;99.90
19680;DHT22;9989;48.962;9.182;2024-02-04T07:24:57;10.10;99.90
19680;DHT22;9989;48.962;9.182;2024-02-04T07:27:22;10.10;99.90
19680;DHT22;9989;48.962;9.182;2024-02-04T07:29:48;10.10;99.90
19680;DHT22;9989;48.962;9.182;2024-02-04T07:32:14;10.10;99.90
19680;DHT22;9989;48.962;9.182;2024-02-04T07:34:40;10.10;99.90
19680;DHT22;9989;48.962;9.182;2024-02-04T07:37:06;10.10;99.90
19680;DHT22;9989;48.962;9.182;2024-02-04T07:39:32;10.10;99.90
19680;DHT22;9989;48.962;9.182;2024-02-04T07:41:58;10.10;99.90
19680;DHT22;9989;48.962;9.182;2024-02-04T07:44:27;10.10;99.90
19680;DHT22;9989;48.962;9.182;2024-02-04T07:46:53;10.20;99.90
19680;DHT22;9989;48.962;9.182;2024-02-04T07:49:18;10.30;99.90
19680;DHT22;9989;48.962;9.182;2024-02-04T07:51:44;10.30;99.90
19680;DHT22;9989;48.962;9.182;2024-02-04T07:54:10;10.30;99.90
19680;DHT22;9989;48.962;9.182;2024-02-04T07:56:35;10.30;99.90
19680;DHT22;9989;48.962;9.182;2024-02-04T07:59:01;10.30;99.90
19680;DHT22;9989;48.962;9.182;2024-02-04T08:01:27;10.40;99.90
19680;DHT22;9989;48.962;9.182;2024-02-04T08:03:52;10.40;99.90
19680;DHT22;9989;48.962;9.182;2024-02-04T08:06:18;10.40;99.90
19680;DHT22;9989;48.962;9.182;2024-02-04T08:08:43;10.40;99.90
19680;DHT22;9989;48.962;9.182;2024-02-04T08:11:10;10.40;99.90
19680;DHT22;9989;48.962;9.182;2024-02-04T08:13:36;10.40;99.90
19680;DHT22;9989;48.962;9.182;2024-02-04T08:16:01;10.50;99.90
19680;DHT22;9989;48.962;9.182;2024-02-04T08:18:27;10.60;99.90
19680;DHT22;9989;48.962;9.182;2024-02-04T08:20:53;10.60;99.90
19680;DHT22;9989;48.962;9.182;2024-02-04T08:23:18;10.60;99.90
19680;DHT22;9989;48.962;9.182;2024-02-04T08:25:44;10.60;99.90
19680;DHT22;9989;48.962;9.182;2024-02-04T08:28:10;10.50;99.90
19680;DHT22;9989;48.962;9.182;2024-02-04T08:30:35;10.50;99.90
19680;DHT22;9989;48.962;9.182;2024-02-04T08:33:01;10.60;99.90
19680;DHT22;9989;48.962;9.182;2024-02-04T08:35:27;10.50;99.90
19680;DHT22;9989;48.962;9.182;2024-02-04T08:37:52;10.40;99.90
19680;DHT22;9989;48.962;9.182;2024-02-04T08:40:18;10.50;99.90
19680;DHT22;9989;48.962;9.182;2024-02-04T08:42:44;10.50;99.90
19680;DHT22;9989;48.962;9.182;2024-02-04T08:45:10;10.50;99.90
19680;DHT22;9989;48.962;9.182;2024-02-04T08:47:35;10.50;99.90
19680;DHT22;9989;48.962;9.182;2024-02-04T08:50:01;10.50;99.90
19680;DHT22;9989;48.962;9.182;2024-02-04T08:52:26;10.60;99.90
19680;DHT22;9989;48.962;9.182;2024-02-04T08:54:53;10.60;99.90
19680;DHT22;9989;48.962;9.182;2024-02-04T08:57:19;10.70;99.90
19680;DHT22;9989;48.962;9.182;2024-02-04T08:59:44;10.70;99.90
19680;DHT22;9989;48.962;9.182;2024-02-04T09:02:10;10.80;99.90
19680;DHT22;9989;48.962;9.182;2024-02-04T09:04:36;10.80;99.90
19680;DHT22;9989;48.962;9.182;2024-02-04T09:07:09;10.90;99.90
19680;DHT22;9989;48.962;9.182;2024-02-04T09:09:35;10.90;99.90
19680;DHT22;9989;48.962;9.182;2024-02-04T09:12:01;10.90;99.90
19680;DHT22;9989;48.962;9.182;2024-02-04T09:14:26;11.00;99.90
19680;DHT22;9989;48.962;9.182;2024-02-04T09:16:52;11.00;99.90
19680;DHT22;9989;48.962;9.182;2024-02-04T09:19:18;10.90;99.90
19680;DHT22;9989;48.962;9.182;2024-02-04T09:21:43;11.00;99.90
19680;DHT22;9989;48.962;9.182;2024-02-04T09:24:09;11.00;99.90
19680;DHT22;9989;48.962;9.182;2024-02-04T09:26:35;11.10;99.90
19680;DHT22;9989;48.962;9.182;2024-02-04T09:32:22;11.50;99.90
19680;DHT22;9989;48.962;9.182;2024-02-04T09:34:48;12.10;99.90
19680;DHT22;9989;48.962;9.182;2024-02-04T09:37:14;12.40;99.90
19680;DHT22;9989;48.962;9.182;2024-02-04T09:39:39;12.40;99.90
19680;DHT22;9989;48.962;9.182;2024-02-04T09:42:05;12.50;99.90
19680;DHT22;9989;48.962;9.182;2024-02-04T09:44:31;12.80;99.90
19680;DHT22;9989;48.962;9.182;2024-02-04T09:46:57;13.10;99.90
19680;DHT22;9989;48.962;9.182;2024-02-04T09:49:26;13.40;99.90
19680;DHT22;9989;48.962;9.182;2024-02-04T09:51:52;13.50;99.90
19680;DHT22;9989;48.962;9.182;2024-02-04T09:54:18;13.80;99.90
19680;DHT22;9989;48.962;9.182;2024-02-04T09:56:45;14.10;99.90
19680;DHT22;9989;48.962;9.182;2024-02-04T09:59:12;14.40;99.90
19680;DHT22;9989;48.962;9.182;2024-02-04T10:01:38;14.30;99.90
19680;DHT22;9989;48.962;9.182;2024-02-04T10:04:04;14.00;99.90
19680;DHT22;9989;48.962;9.182;2024-02-04T10:06:30;13.60;99.90
19680;DHT22;9989;48.962;9.182;2024-02-04T10:08:55;13.40;99.90
19680;DHT22;9989;48.962;9.182;2024-02-04T10:11:22;13.30;99.90
19680;DHT22;9989;48.962;9.182;2024-02-04T10:13:49;13.20;99.90
19680;DHT22;9989;48.962;9.182;2024-02-04T10:16:15;12.90;99.90
19680;DHT22;9989;48.962;9.182;2024-02-04T10:18:42;12.90;99.90
19680;DHT22;9989;48.962;9.182;2024-02-04T10:21:19;12.80;99.90
19680;DHT22;9989;48.962;9.182;2024-02-04T11:01:26;13.30;99.90
19680;DHT22;9989;48.962;9.182;2024-02-04T11:03:54;13.80;99.90
19680;DHT22;9989;48.962;9.182;2024-02-04T11:06:23;14.50;99.90
19680;DHT22;9989;48.962;9.182;2024-02-04T11:08:51;15.30;99.90
19680;DHT22;9989;48.962;9.182;2024-02-04T11:11:20;15.50;99.90
19680;DHT22;9989;48.962;9.182;2024-02-04T11:13:51;15.20;99.90
19680;DHT22;9989;48.962;9.182;2024-02-04T11:19:56;14.80;99.90
19680;DHT22;9989;48.962;9.182;2024-02-04T11:27:34;13.50;99.90
19680;DHT22;9989;48.962;9.182;2024-02-04T11:30:00;13.20;99.90
19680;DHT22;9989;48.962;9.182;2024-02-04T11:32:26;12.80;99.90
19680;DHT22;9989;48.962;9.182;2024-02-04T11:34:54;12.50;99.90
19680;DHT22;9989;48.962;9.182;2024-02-04T11:37:20;12.30;99.90
19680;DHT22;9989;48.962;9.182;2024-02-04T11:39:53;12.10;99.90
19680;DHT22;9989;48.962;9.182;2024-02-04T11:42:19;12.00;99.90
19680;DHT22;9989;48.962;9.182;2024-02-04T11:44:47;12.00;99.90
19680;DHT22;9989;48.962;9.182;2024-02-04T11:47:25;12.00;99.90
19680;DHT22;9989;48.962;9.182;2024-02-04T11:49:58;12.20;99.90
19680;DHT22;9989;48.962;9.182;2024-02-04T11:52:27;12.20;99.90
19680;DHT22;9989;48.962;9.182;2024-02-04T11:54:53;12.40;99.90
19680;DHT22;9989;48.962;9.182;2024-02-04T11:57:19;12.50;99.90
19680;DHT22;9989;48.962;9.182;2024-02-04T11:59:46;12.70;99.90
19680;DHT22;9989;48.962;9.182;2024-02-04T12:02:15;12.80;99.90
19680;DHT22;9989;48.962;9.182;2024-02-04T12:04:41;13.20;99.90
19680;DHT22;9989;48.962;9.182;2024-02-04T12:07:08;13.50;99.90
19680;DHT22;9989;48.962;9.182;2024-02-04T12:09:35;14.00;99.90
19680;DHT22;9989;48.962;9.182;2024-02-04T12:12:02;14.50;99.90
19680;DHT22;9989;48.962;9.182;2024-02-04T12:14:28;14.80;99.90
19680;DHT22;9989;48.962;9.182;2024-02-04T12:16:56;15.50;99.90
19680;DHT22;9989;48.962;9.182;2024-02-04T12:19:23;16.20;99.90
19680;DHT22;9989;48.962;9.182;2024-02-04T12:21:48;16.90;99.90
19680;DHT22;9989;48.962;9.182;2024-02-04T12:24:14;17.50;99.90
19680;DHT22;9989;48.962;9.182;2024-02-04T12:26:40;17.50;99.90
19680;DHT22;9989;48.962;9.182;2024-02-04T12:29:07;17.30;99.90
19680;DHT22;9989;48.962;9.182;2024-02-04T12:31:32;17.00;99.90
19680;DHT22;9989;48.962;9.182;2024-02-04T12:34:00;16.80;99.90
19680;DHT22;9989;48.962;9.182;2024-02-04T12:43:14;16.60;99.90
19680;DHT22;9989;48.962;9.182;2024-02-04T12:45:40;17.00;99.90
19680;DHT22;9989;48.962;9.182;2024-02-04T12:48:07;17.20;99.90
19680;DHT22;9989;48.962;9.182;2024-02-04T12:50:37;17.00;99.90
19680;DHT22;9989;48.962;9.182;2024-02-04T12:53:06;17.20;99.90
19680;DHT22;9989;48.962;9.182;2024-02-04T12:55:33;17.40;99.90
19680;DHT22;9989;48.962;9.182;2024-02-04T12:58:17;17.50;99.90
19680;DHT22;9989;48.962;9.182;2024-02-04T13:00:43;16.80;99.90
19680;DHT22;9989;48.962;9.182;2024-02-04T13:03:10;16.20;99.90
19680;DHT22;9989;48.962;9.182;2024-02-04T13:05:37;15.70;99.90
19680;DHT22;9989;48.962;9.182;2024-02-04T13:14:51;14.20;99.90
19680;DHT22;9989;48.962;9.182;2024-02-04T13:17:16;14.00;99.90
19680;DHT22;9989;48.962;9.182;2024-02-04T13:19:42;13.90;99.90
19680;DHT22;9989;48.962;9.182;2024-02-04T13:22:09;13.70;99.90
19680;DHT22;9989;48.962;9.182;2024-02-04T13:24:35;13.40;99.90
19680;DHT22;9989;48.962;9.182;2024-02-04T13:27:02;13.40;99.90
19680;DHT22;9989;48.962;9.182;2024-02-04T13:29:28;13.60;99.90
19680;DHT22;9989;48.962;9.182;2024-02-04T13:31:54;13.70;99.90
19680;DHT22;9989;48.962;9.182;2024-02-04T13:34:21;13.60;99.90
19680;DHT22;9989;48.962;9.182;2024-02-04T13:36:46;13.60;99.90
19680;DHT22;9989;48.962;9.182;2024-02-04T13:39:12;13.70;99.90
19680;DHT22;9989;48.962;9.182;2024-02-04T13:41:41;13.70;99.90
19680;DHT22;9989;48.962;9.182;2024-02-04T13:44:07;13.90;99.90
19680;DHT22;9989;48.962;9.182;2024-02-04T13:46:33;14.30;99.90
19680;DHT22;9989;48.962;9.182;2024-02-04T13:48:59;14.20;99.90
19680;DHT22;9989;48.962;9.182;2024-02-04T13:51:24;14.20;99.90
19680;DHT22;9989;48.962;9.182;2024-02-04T13:53:50;14.30;99.90
19680;DHT22;9989;48.962;9.182;2024-02-04T13:56:16;14.40;99.90
19680;DHT22;9989;48.962;9.182;2024-02-04T13:58:44;14.50;99.90
19680;DHT22;9989;48.962;9.182;2024-02-04T14:04:32;14.10;99.90
19680;DHT22;9989;48.962;9.182;2024-02-04T14:06:58;13.90;99.90
19680;DHT22;9989;48.962;9.182;2024-02-04T14:09:23;13.80;99.90
19680;DHT22;9989;48.962;9.182;2024-02-04T14:11:49;13.60;99.90
19680;DHT22;9989;48.962;9.182;2024-02-04T14:14:14;13.60;99.90
19680;DHT22;9989;48.962;9.182;2024-02-04T14:16:40;13.50;99.90
19680;DHT22;9989;48.962;9.182;2024-02-04T14:19:06;13.60;99.90
19680;DHT22;9989;48.962;9.182;2024-02-04T14:21:32;13.50;99.90
19680;DHT22;9989;48.962;9.182;2024-02-04T14:23:57;13.40;99.90
19680;DHT22;9989;48.962;9.182;2024-02-04T14:26:23;13.30;99.90
19680;DHT22;9989;48.962;9.182;2024-02-04T14:28:49;13.10;99.90
19680;DHT22;9989;48.962;9.182;2024-02-04T14:31:14;13.00;99.90
19680;DHT22;9989;48.962;9.182;2024-02-04T14:33:42;13.00;99.90
19680;DHT22;9989;48.962;9.182;2024-02-04T14:36:08;12.80;99.90
19680;DHT22;9989;48.962;9.182;2024-02-04T14:38:34;12.70;99.90
19680;DHT22;9989;48.962;9.182;2024-02-04T14:41:03;12.60;99.90
19680;DHT22;9989;48.962;9.182;2024-02-04T14:43:28;12.40;99.90
19680;DHT22;9989;48.962;9.182;2024-02-04T14:45:54;12.20;99.90
19680;DHT22;9989;48.962;9.182;2024-02-04T14:48:20;12.10;99.90
19680;DHT22;9989;48.962;9.182;2024-02-04T14:50:46;12.10;99.90
19680;DHT22;9989;48.962;9.182;2024-02-04T14:53:12;12.00;99.90
19680;DHT22;9989;48.962;9.182;2024-02-04T14:55:38;11.90;99.90
19680;DHT22;9989;48.962;9.182;2024-02-04T14:58:03;11.90;99.90
19680;DHT22;9989;48.962;9.182;2024-02-04T15:07:48;11.60;99.90
19680;DHT22;9989;48.962;9.182;2024-02-04T15:10:13;11.50;99.90
19680;DHT22;9989;48.962;9.182;2024-02-04T15:12:39;11.30;99.90
19680;DHT22;9989;48.962;9.182;2024-02-04T15:15:06;11.20;99.90
19680;DHT22;9989;48.962;9.182;2024-02-04T15:17:33;11.20;99.90
19680;DHT22;9989;48.962;9.182;2024-02-04T15:19:59;11.20;99.90
19680;DHT22;9989;48.962;9.182;2024-02-04T15:22:25;11.10;99.90
19680;DHT22;9989;48.962;9.182;2024-02-04T15:24:51;11.10;99.90
19680;DHT22;9989;48.962;9.182;2024-02-04T15:27:18;11.10;99.90
19680;DHT22;9989;48.962;9.182;2024-02-04T15:29:47;11.00;99.90
19680;DHT22;9989;48.962;9.182;2024-02-04T15:32:16;11.00;99.90
19680;DHT22;9989;48.962;9.182;2024-02-04T15:34:42;11.00;99.90
19680;DHT22;9989;48.962;9.182;2024-02-04T15:37:08;11.00;99.90
19680;DHT22;9989;48.962;9.182;2024-02-04T15:39:35;10.90;99.90
19680;DHT22;9989;48.962;9.182;2024-02-04T15:42:03;10.90;99.90
19680;DHT22;9989;48.962;9.182;2024-02-04T15:44:30;10.90;99.90
19680;DHT22;9989;48.962;9.182;2024-02-04T15:46:56;10.80;99.90
19680;DHT22;9989;48.962;9.182;2024-02-04T15:49:24;10.90;99.90
19680;DHT22;9989;48.962;9.182;2024-02-04T15:51:50;10.80;99.90
19680;DHT22;9989;48.962;9.182;2024-02-04T15:54:16;10.80;99.90
19680;DHT22;9989;48.962;9.182;2024-02-04T15:56:43;10.80;99.90
19680;DHT22;9989;48.962;9.182;2024-02-04T15:59:12;10.70;99.90
19680;DHT22;9989;48.962;9.182;2024-02-04T16:01:39;10.70;99.90
19680;DHT22;9989;48.962;9.182;2024-02-04T16:04:08;10.70;99.90
19680;DHT22;9989;48.962;9.182;2024-02-04T16:06:34;10.70;99.90
19680;DHT22;9989;48.962;9.182;2024-02-04T16:09:01;10.70;99.90
19680;DHT22;9989;48.962;9.182;2024-02-04T16:14:11;10.70;99.90
19680;DHT22;9989;48.962;9.182;2024-02-04T16:16:42;10.60;99.90
19680;DHT22;9989;48.962;9.182;2024-02-04T16:19:11;10.60;99.90
19680;DHT22;9989;48.962;9.182;2024-02-04T16:21:37;10.60;99.90
19680;DHT22;9989;48.962;9.182;2024-02-04T16:24:03;10.60;99.90
19680;DHT22;9989;48.962;9.182;2024-02-04T16:26:29;10.60;99.90
19680;DHT22;9989;48.962;9.182;2024-02-04T16:28:56;10.60;99.90
19680;DHT22;9989;48.962;9.182;2024-02-04T16:31:21;10.60;99.90
19680;DHT22;9989;48.962;9.182;2024-02-04T16:33:47;10.50;99.90
19680;DHT22;9989;48.962;9.182;2024-02-04T16:36:13;10.50;99.90
19680;DHT22;9989;48.962;9.182;2024-02-04T16:38:38;10.50;99.90
19680;DHT22;9989;48.962;9.182;2024-02-04T16:41:04;10.50;99.90
19680;DHT22;9989;48.962;9.182;2024-02-04T16:43:31;10.50;99.90
19680;DHT22;9989;48.962;9.182;2024-02-04T16:45:56;10.50;99.90
19680;DHT22;9989;48.962;9.182;2024-02-04T16:48:22;10.50;99.90
19680;DHT22;9989;48.962;9.182;2024-02-04T16:50:47;10.50;99.90
19680;DHT22;9989;48.962;9.182;2024-02-04T16:53:15;10.50;99.90
19680;DHT22;9989;48.962;9.182;2024-02-04T16:55:44;10.50;99.90
19680;DHT22;9989;48.962;9.182;2024-02-04T16:58:10;10.60;99.90
19680;DHT22;9989;48.962;9.182;2024-02-04T17:00:36;10.60;99.90
19680;DHT22;9989;48.962;9.182;2024-02-04T17:03:02;10.60;99.90
19680;DHT22;9989;48.962;9.182;2024-02-04T17:05:29;10.60;99.90